Time;durP1;ratioP1;P1;durP2;ratioP2;P2;SDS_P1;SDS_P2;PMS_P1;PMS_P2;Temp;Humidity;BMP_temperature;BMP_pressure;BME280_temperature;BME280_humidity;BME280_pressure;Samples;Min_cycle;Max_cycle;Signal;HPM_P1;HPM_P2
2023/05/18 00:00:00;;;;;;;3.17;1.38;;;;;;;;;;5036477;28;20355;-79
2023/05/18 00:02:25;;;;;;;1.60;1.17;;;;;;;;;;5053990;28;20044;-80
2023/05/18 00:04:51;;;;;;;3.13;1.40;;;;;;;;;;5054056;28;20090;-80
2023/05/18 00:07:17;;;;;;;1.92;1.33;;;;;;;;;;5053983;28;20060;-80
2023/05/18 00:09:42;;;;;;;1.83;1.08;;;;;;;;;;5020228;28;20468;-81
2023/05/18 00:12:08;;;;;;;3.40;1.23;;;;;;;;;;5019797;28;20044;-78
2023/05/18 00:14:34;;;;;;;3.40;1.30;;;;;;;;;;5053008;28;20025;-80
2023/05/18 00:17:02;;;;;;;2.40;1.30;;;;;;;;;;5053356;28;20025;-79
2023/05/18 00:19:28;;;;;;;3.28;1.20;;;;;;;;;;5053413;28;20434;-80
2023/05/18 00:21:54;;;;;;;3.67;1.52;;;;;;;;;;5035607;28;20024;-79
2023/05/18 00:24:20;;;;;;;3.13;1.30;;;;;;;;;;5035995;28;20486;-79
2023/05/18 00:26:47;;;;;;;2.13;1.20;;;;;;;;;;5035390;28;20029;-79
2023/05/18 00:29:12;;;;;;;2.00;1.20;;;;;;;;;;5035424;28;20420;-80
2023/05/18 00:31:38;;;;;;;2.97;1.17;;;;;;;;;;5053591;28;20029;-80
2023/05/18 00:34:13;;;;;;;1.83;1.20;;;;;;;;;;5053160;28;20029;-80
2023/05/18 00:36:39;;;;;;;1.52;1.08;;;;;;;;;;5035279;28;20028;-80
2023/05/18 00:39:05;;;;;;;1.70;1.08;;;;;;;;;;5019304;28;20033;-81
2023/05/18 00:41:31;;;;;;;2.13;1.15;;;;;;;;;;5035705;28;20024;-80
2023/05/18 00:43:57;;;;;;;1.73;1.08;;;;;;;;;;5019658;28;20502;-80
2023/05/18 00:46:24;;;;;;;2.38;1.38;;;;;;;;;;5036390;28;20021;-81
2023/05/18 00:48:50;;;;;;;5.18;1.10;;;;;;;;;;5036868;28;20349;-80
2023/05/18 00:51:17;;;;;;;6.07;1.40;;;;;;;;;;5053849;28;20036;-81
2023/05/18 00:53:43;;;;;;;1.73;1.20;;;;;;;;;;5034986;28;20025;-81
2023/05/18 00:56:12;;;;;;;1.83;1.08;;;;;;;;;;5035127;28;20036;-81
2023/05/18 00:58:38;;;;;;;2.60;1.35;;;;;;;;;;5036092;28;20029;-80
2023/05/18 01:01:05;;;;;;;1.80;1.40;;;;;;;;;;5038317;28;20037;-81
2023/05/18 01:03:38;;;;;;;2.10;1.17;;;;;;;;;;5019779;28;20427;-81
2023/05/18 01:06:04;;;;;;;3.83;1.35;;;;;;;;;;5036910;28;20156;-80
2023/05/18 01:08:30;;;;;;;4.55;1.23;;;;;;;;;;5036606;28;20470;-80
2023/05/18 01:11:10;;;;;;;2.60;1.00;;;;;;;;;;5035987;28;20045;-80
2023/05/18 01:13:48;;;;;;;1.23;1.00;;;;;;;;;;5018396;28;20206;-78
2023/05/18 01:16:18;;;;;;;1.20;1.02;;;;;;;;;;5035062;28;20095;-80
2023/05/18 01:18:53;;;;;;;1.45;1.20;;;;;;;;;;5034840;28;20436;-80
2023/05/18 01:21:54;;;;;;;1.42;1.00;;;;;;;;;;5035373;28;20032;-80
2023/05/18 01:24:35;;;;;;;2.47;1.15;;;;;;;;;;5034834;28;20052;-80
2023/05/18 01:27:02;;;;;;;2.33;1.23;;;;;;;;;;5038304;28;20481;-81
2023/05/18 01:29:29;;;;;;;3.13;1.02;;;;;;;;;;5039202;28;20033;-81
2023/05/18 01:31:54;;;;;;;1.55;1.35;;;;;;;;;;5038890;28;20036;-80
2023/05/18 01:34:20;;;;;;;1.92;1.20;;;;;;;;;;5038733;28;20025;-80
2023/05/18 01:36:45;;;;;;;3.17;1.30;;;;;;;;;;5038720;28;20041;-80
2023/05/18 01:39:11;;;;;;;1.50;1.10;;;;;;;;;;5056505;28;20028;-80
2023/05/18 01:41:39;;;;;;;1.88;1.10;;;;;;;;;;5038615;28;20040;-80
2023/05/18 01:44:14;;;;;;;1.80;1.13;;;;;;;;;;5022034;28;20050;-80
2023/05/18 01:46:52;;;;;;;2.80;1.33;;;;;;;;;;5039102;28;20020;-81
2023/05/18 01:49:27;;;;;;;1.55;1.13;;;;;;;;;;5056628;28;20479;-80
2023/05/18 01:51:53;;;;;;;1.52;1.00;;;;;;;;;;5056292;28;20036;-79
2023/05/18 01:54:20;;;;;;;1.35;0.93;;;;;;;;;;5037964;28;20128;-80
2023/05/18 01:56:46;;;;;;;1.25;1.10;;;;;;;;;;5038504;28;20088;-80
2023/05/18 01:59:13;;;;;;;2.80;1.50;;;;;;;;;;5038653;28;20166;-80
2023/05/18 02:01:38;;;;;;;1.67;1.20;;;;;;;;;;5056346;28;20040;-80
2023/05/18 02:04:08;;;;;;;1.52;1.10;;;;;;;;;;5021617;28;20021;-80
2023/05/18 02:06:34;;;;;;;2.05;1.05;;;;;;;;;;5037919;28;20033;-80
2023/05/18 02:08:59;;;;;;;2.47;1.10;;;;;;;;;;5056138;28;20399;-80
2023/05/18 02:11:25;;;;;;;1.95;1.15;;;;;;;;;;5055836;28;20032;-80
2023/05/18 02:13:50;;;;;;;1.13;1.00;;;;;;;;;;5056041;28;20025;-80
2023/05/18 02:16:16;;;;;;;1.98;1.20;;;;;;;;;;5038151;28;20059;-80
2023/05/18 02:18:41;;;;;;;2.78;1.20;;;;;;;;;;5055580;28;20515;-80
2023/05/18 02:21:08;;;;;;;3.00;1.02;;;;;;;;;;5038162;28;20029;-80
2023/05/18 02:23:34;;;;;;;2.03;1.20;;;;;;;;;;5021804;28;20020;-80
2023/05/18 02:25:59;;;;;;;2.90;1.17;;;;;;;;;;5038164;28;20087;-80
2023/05/18 02:28:25;;;;;;;2.25;1.10;;;;;;;;;;5037995;28;20361;-80
2023/05/18 02:30:50;;;;;;;1.48;1.10;;;;;;;;;;5055588;28;20086;-80
2023/05/18 02:33:18;;;;;;;2.22;1.30;;;;;;;;;;5038026;28;20459;-80
2023/05/18 02:35:43;;;;;;;2.83;1.33;;;;;;;;;;5037907;28;20033;-80
2023/05/18 02:38:09;;;;;;;2.40;1.30;;;;;;;;;;5036709;28;20373;-80
2023/05/18 02:40:35;;;;;;;2.45;1.23;;;;;;;;;;5037591;28;20082;-81
2023/05/18 02:43:00;;;;;;;2.42;1.17;;;;;;;;;;5037451;28;20104;-80
2023/05/18 02:45:26;;;;;;;2.35;1.20;;;;;;;;;;5021201;28;20083;-81
2023/05/18 02:47:51;;;;;;;1.20;0.95;;;;;;;;;;5055698;28;20032;-80
2023/05/18 02:50:17;;;;;;;2.60;1.40;;;;;;;;;;5037503;28;20079;-80
2023/05/18 02:52:44;;;;;;;3.60;1.27;;;;;;;;;;5055238;28;20428;-80
2023/05/18 02:55:09;;;;;;;1.75;1.10;;;;;;;;;;5036810;28;20134;-80
2023/05/18 02:57:35;;;;;;;1.90;1.08;;;;;;;;;;5037465;28;20488;-80
2023/05/18 03:00:00;;;;;;;2.17;1.10;;;;;;;;;;5054738;28;20426;-80
2023/05/18 03:02:26;;;;;;;1.90;1.15;;;;;;;;;;5037391;28;20471;-80
2023/05/18 03:04:56;;;;;;;2.20;1.02;;;;;;;;;;5021178;28;20021;-80
2023/05/18 03:07:22;;;;;;;1.33;0.93;;;;;;;;;;5037699;28;20053;-80
2023/05/18 03:09:47;;;;;;;1.52;1.00;;;;;;;;;;5020568;28;20469;-80
2023/05/18 03:12:12;;;;;;;2.10;1.05;;;;;;;;;;5037495;28;20025;-80
2023/05/18 03:14:38;;;;;;;1.13;1.00;;;;;;;;;;5020311;28;20029;-80
2023/05/18 03:17:04;;;;;;;2.17;0.90;;;;;;;;;;5036812;28;20025;-80
2023/05/18 03:19:31;;;;;;;2.20;1.20;;;;;;;;;;5054461;28;20029;-80
2023/05/18 03:21:56;;;;;;;1.30;1.05;;;;;;;;;;5054421;28;20085;-80
2023/05/18 03:24:25;;;;;;;3.53;1.20;;;;;;;;;;5036687;28;20503;-80
2023/05/18 03:26:52;;;;;;;2.72;1.52;;;;;;;;;;5054398;28;20077;-80
2023/05/18 03:29:18;;;;;;;2.15;1.20;;;;;;;;;;5021172;28;20460;-80
2023/05/18 03:31:43;;;;;;;3.33;1.50;;;;;;;;;;5037086;28;20060;-80
2023/05/18 03:34:09;;;;;;;1.85;1.20;;;;;;;;;;5037413;28;20065;-80
2023/05/18 03:36:35;;;;;;;2.15;1.08;;;;;;;;;;5037647;28;20069;-80
2023/05/18 03:39:00;;;;;;;6.30;1.50;;;;;;;;;;5054920;28;20029;-80
2023/05/18 03:41:27;;;;;;;1.75;1.17;;;;;;;;;;5036474;28;20103;-80
2023/05/18 03:43:52;;;;;;;1.50;1.40;;;;;;;;;;5021390;28;20025;-81
2023/05/18 03:46:17;;;;;;;3.22;1.15;;;;;;;;;;5036139;28;20579;-81
2023/05/18 03:48:43;;;;;;;1.42;1.25;;;;;;;;;;5053124;28;20033;-80
2023/05/18 03:51:08;;;;;;;1.65;1.13;;;;;;;;;;5054160;28;20110;-80
2023/05/18 03:53:35;;;;;;;2.03;1.20;;;;;;;;;;5035715;28;20032;-81
2023/05/18 03:56:00;;;;;;;1.55;1.10;;;;;;;;;;5019865;28;20033;-80
2023/05/18 03:58:26;;;;;;;2.42;1.10;;;;;;;;;;5036620;28;20048;-80
2023/05/18 04:00:51;;;;;;;3.45;1.33;;;;;;;;;;5036025;28;20040;-80
2023/05/18 04:03:17;;;;;;;2.15;1.13;;;;;;;;;;5053621;28;20419;-81
2023/05/18 04:05:43;;;;;;;3.28;1.40;;;;;;;;;;5019486;28;20094;-80
2023/05/18 04:08:13;;;;;;;2.55;1.10;;;;;;;;;;5019168;28;20392;-81
2023/05/18 04:10:38;;;;;;;1.55;1.10;;;;;;;;;;5036435;28;20442;-80
2023/05/18 04:13:04;;;;;;;1.63;1.17;;;;;;;;;;5035633;28;20028;-80
2023/05/18 04:15:29;;;;;;;3.95;1.23;;;;;;;;;;5053778;28;20029;-80
2023/05/18 04:17:55;;;;;;;2.20;0.85;;;;;;;;;;5036414;28;20035;-81
2023/05/18 04:20:20;;;;;;;2.28;1.20;;;;;;;;;;5002699;28;20057;-80
2023/05/18 04:22:47;;;;;;;1.10;1.00;;;;;;;;;;5035631;28;20097;-81
2023/05/18 04:25:13;;;;;;;2.95;1.23;;;;;;;;;;5035727;28;20032;-80
2023/05/18 04:27:40;;;;;;;2.10;1.33;;;;;;;;;;5019485;28;20056;-80
2023/05/18 04:30:07;;;;;;;2.10;1.10;;;;;;;;;;5035315;28;20029;-80
2023/05/18 04:32:35;;;;;;;2.17;1.20;;;;;;;;;;5018908;28;20115;-80
2023/05/18 04:35:05;;;;;;;2.05;1.20;;;;;;;;;;5036008;28;20543;-79
2023/05/18 04:37:31;;;;;;;2.25;1.00;;;;;;;;;;5035920;28;20032;-80
2023/05/18 04:39:57;;;;;;;2.42;1.10;;;;;;;;;;5053508;28;20115;-80
2023/05/18 04:42:23;;;;;;;3.20;1.30;;;;;;;;;;5053684;28;20037;-80
2023/05/18 04:44:51;;;;;;;2.47;1.17;;;;;;;;;;5035737;28;20055;-80
2023/05/18 04:47:16;;;;;;;3.63;1.50;;;;;;;;;;5053804;28;20359;-80
2023/05/18 04:49:42;;;;;;;1.67;1.20;;;;;;;;;;5053482;28;20108;-80
2023/05/18 04:52:09;;;;;;;1.48;1.00;;;;;;;;;;5035427;28;20037;-80
2023/05/18 04:54:34;;;;;;;1.33;1.20;;;;;;;;;;5019070;28;20053;-80
2023/05/18 04:57:02;;;;;;;4.93;1.20;;;;;;;;;;5036152;28;20036;-80
2023/05/18 04:59:27;;;;;;;2.35;1.38;;;;;;;;;;5054663;28;20044;-80
2023/05/18 05:01:53;;;;;;;1.88;1.20;;;;;;;;;;5059177;28;20036;-81
2023/05/18 05:04:20;;;;;;;2.45;1.00;;;;;;;;;;5058904;28;20025;-80
2023/05/18 05:06:45;;;;;;;2.20;1.17;;;;;;;;;;5024107;28;20095;-80
2023/05/18 05:09:13;;;;;;;2.25;1.05;;;;;;;;;;5040435;28;20033;-81
2023/05/18 05:11:39;;;;;;;3.33;1.25;;;;;;;;;;5039978;28;20049;-80
2023/05/18 05:14:05;;;;;;;1.45;0.90;;;;;;;;;;5040058;28;20482;-81
2023/05/18 05:16:30;;;;;;;1.80;1.15;;;;;;;;;;5023573;28;20124;-81
2023/05/18 05:18:56;;;;;;;2.88;1.25;;;;;;;;;;5023186;28;20109;-81
2023/05/18 05:21:21;;;;;;;2.95;1.20;;;;;;;;;;5057554;28;20028;-81
2023/05/18 05:23:47;;;;;;;2.28;1.00;;;;;;;;;;5057681;28;20055;-81
2023/05/18 05:26:12;;;;;;;1.00;0.90;;;;;;;;;;5057602;28;20044;-81
2023/05/18 05:28:38;;;;;;;6.13;1.13;;;;;;;;;;5057021;28;20037;-81
2023/05/18 05:31:03;;;;;;;1.08;0.98;;;;;;;;;;5057402;28;20143;-80
2023/05/18 05:33:28;;;;;;;1.70;1.23;;;;;;;;;;5057636;28;20044;-81
2023/05/18 05:35:57;;;;;;;1.35;1.05;;;;;;;;;;5039282;28;20029;-79
2023/05/18 05:38:22;;;;;;;2.72;1.13;;;;;;;;;;5057257;28;20415;-81
2023/05/18 05:40:47;;;;;;;2.53;1.30;;;;;;;;;;5056988;28;20032;-80
2023/05/18 05:43:13;;;;;;;2.28;1.30;;;;;;;;;;5056856;28;20451;-82
2023/05/18 05:45:39;;;;;;;5.80;2.13;;;;;;;;;;5039239;28;20035;-82
2023/05/18 05:48:04;;;;;;;5.80;1.92;;;;;;;;;;5040708;28;20036;-83
2023/05/18 05:50:31;;;;;;;4.05;1.48;;;;;;;;;;5056877;28;20438;-83
2023/05/18 05:52:59;;;;;;;5.10;1.60;;;;;;;;;;5055868;28;20028;-81
2023/05/18 05:55:25;;;;;;;4.40;1.60;;;;;;;;;;5022100;28;20154;-81
2023/05/18 05:57:50;;;;;;;8.55;2.53;;;;;;;;;;5037885;28;20502;-80
2023/05/18 06:00:16;;;;;;;5.63;2.03;;;;;;;;;;5038308;28;20108;-83
2023/05/18 06:02:41;;;;;;;7.53;2.15;;;;;;;;;;5055853;28;20388;-83
2023/05/18 06:05:07;;;;;;;5.35;1.77;;;;;;;;;;5056014;28;20483;-82
2023/05/18 06:07:33;;;;;;;2.90;1.75;;;;;;;;;;5056373;28;20029;-83
2023/05/18 06:09:59;;;;;;;3.60;1.90;;;;;;;;;;5056335;28;20032;-82
2023/05/18 06:12:24;;;;;;;8.73;1.77;;;;;;;;;;5036482;28;20368;-82
2023/05/18 06:14:56;;;;;;;4.90;1.92;;;;;;;;;;5021443;28;20148;-82
2023/05/18 06:17:22;;;;;;;6.40;2.00;;;;;;;;;;5022438;28;20123;-82
2023/05/18 06:19:47;;;;;;;5.63;1.92;;;;;;;;;;5037674;28;20095;-81
2023/05/18 06:22:13;;;;;;;7.90;2.38;;;;;;;;;;5036741;28;20053;-82
2023/05/18 06:24:41;;;;;;;5.43;1.83;;;;;;;;;;5037404;28;20480;-82
2023/05/18 06:27:07;;;;;;;6.43;2.17;;;;;;;;;;5053493;28;20480;-82
2023/05/18 06:29:32;;;;;;;5.43;1.90;;;;;;;;;;5054971;28;20029;-82
2023/05/18 06:31:58;;;;;;;4.55;1.80;;;;;;;;;;5037197;28;20090;-81
2023/05/18 06:34:23;;;;;;;4.55;1.70;;;;;;;;;;5020976;28;20143;-81
2023/05/18 06:36:49;;;;;;;6.72;1.98;;;;;;;;;;5055252;28;20037;-82
2023/05/18 06:39:14;;;;;;;5.28;1.67;;;;;;;;;;5055292;28;20024;-81
2023/05/18 06:41:40;;;;;;;5.07;1.98;;;;;;;;;;5037341;28;20100;-82
2023/05/18 06:44:06;;;;;;;4.22;1.70;;;;;;;;;;5020848;28;20033;-81
2023/05/18 06:46:31;;;;;;;3.45;1.80;;;;;;;;;;5037165;28;20120;-83
2023/05/18 06:48:56;;;;;;;7.78;1.50;;;;;;;;;;5054775;28;20052;-82
2023/05/18 06:51:22;;;;;;;3.92;1.77;;;;;;;;;;5054593;28;20052;-81
2023/05/18 06:53:47;;;;;;;3.58;1.50;;;;;;;;;;5036845;28;20060;-80
2023/05/18 06:56:13;;;;;;;2.35;1.48;;;;;;;;;;5055434;28;20092;-80
2023/05/18 06:58:40;;;;;;;5.97;1.50;;;;;;;;;;5021034;28;20040;-80
2023/05/18 07:01:05;;;;;;;3.35;1.50;;;;;;;;;;5024585;28;20039;-79
2023/05/18 07:03:31;;;;;;;3.72;1.80;;;;;;;;;;5055607;28;20112;-80
2023/05/18 07:05:57;;;;;;;5.97;1.70;;;;;;;;;;5021266;28;20033;-79
2023/05/18 07:08:23;;;;;;;4.70;1.70;;;;;;;;;;5054500;28;20063;-81
2023/05/18 07:10:49;;;;;;;5.85;1.50;;;;;;;;;;5037098;28;20047;-80
2023/05/18 07:13:15;;;;;;;3.58;1.55;;;;;;;;;;5036830;28;20028;-81
2023/05/18 07:15:40;;;;;;;6.53;2.00;;;;;;;;;;5037593;28;20033;-81
2023/05/18 07:18:05;;;;;;;4.10;1.70;;;;;;;;;;5054521;28;20112;-81
2023/05/18 07:20:31;;;;;;;3.35;1.50;;;;;;;;;;5054706;28;20085;-80
2023/05/18 07:22:56;;;;;;;5.00;1.80;;;;;;;;;;5053928;28;20112;-80
2023/05/18 07:25:22;;;;;;;3.35;1.50;;;;;;;;;;5036880;28;20029;-79
2023/05/18 07:27:48;;;;;;;4.22;1.45;;;;;;;;;;5037232;28;20021;-79
2023/05/18 07:30:13;;;;;;;4.32;1.63;;;;;;;;;;5036226;28;20101;-80
2023/05/18 07:32:39;;;;;;;4.72;2.00;;;;;;;;;;5054758;28;20035;-80
2023/05/18 07:35:08;;;;;;;2.60;1.50;;;;;;;;;;5040456;28;20029;-80
2023/05/18 07:37:33;;;;;;;3.30;1.45;;;;;;;;;;5029564;28;20123;-82
2023/05/18 07:39:58;;;;;;;3.28;1.40;;;;;;;;;;5019210;28;20486;-82
2023/05/18 07:42:24;;;;;;;3.20;1.30;;;;;;;;;;5055119;28;20115;-82
2023/05/18 07:44:49;;;;;;;3.42;1.40;;;;;;;;;;5036795;28;20071;-80
2023/05/18 07:47:15;;;;;;;3.35;1.30;;;;;;;;;;5036560;28;20079;-80
2023/05/18 07:49:41;;;;;;;3.67;1.40;;;;;;;;;;5054327;28;20472;-80
2023/05/18 07:52:07;;;;;;;4.68;1.10;;;;;;;;;;5035607;28;20060;-79
2023/05/18 07:54:33;;;;;;;5.82;1.83;;;;;;;;;;5054285;28;20507;-80
2023/05/18 07:56:58;;;;;;;9.65;1.70;;;;;;;;;;5055068;28;20048;-80
2023/05/18 07:59:24;;;;;;;11.15;3.45;;;;;;;;;;5036912;28;20063;-82
2023/05/18 08:01:49;;;;;;;29.45;5.47;;;;;;;;;;5038141;28;20050;-82
2023/05/18 08:04:14;;;;;;;22.73;5.40;;;;;;;;;;5056607;28;20033;-82
2023/05/18 08:06:40;;;;;;;24.38;5.88;;;;;;;;;;5036476;28;20083;-80
2023/05/18 08:09:05;;;;;;;31.75;5.18;;;;;;;;;;5054009;28;20126;-81
2023/05/18 08:11:31;;;;;;;19.70;4.85;;;;;;;;;;5020217;28;20392;-81
2023/05/18 08:13:57;;;;;;;16.95;5.07;;;;;;;;;;5055446;28;20491;-81
2023/05/18 08:16:22;;;;;;;24.30;4.40;;;;;;;;;;5020769;28;20106;-81
2023/05/18 08:18:48;;;;;;;17.55;4.30;;;;;;;;;;5037400;28;20175;-81
2023/05/18 08:21:13;;;;;;;22.15;4.25;;;;;;;;;;5036329;28;20036;-81
2023/05/18 08:23:39;;;;;;;18.35;4.40;;;;;;;;;;5037245;28;20021;-81
2023/05/18 08:26:06;;;;;;;14.52;3.42;;;;;;;;;;5057035;28;20060;-80
2023/05/18 08:28:32;;;;;;;13.45;3.70;;;;;;;;;;5023859;28;20024;-80
2023/05/18 08:30:57;;;;;;;12.55;3.60;;;;;;;;;;5036050;28;20035;-81
2023/05/18 08:33:23;;;;;;;9.10;3.05;;;;;;;;;;5018961;28;20029;-81
2023/05/18 08:35:48;;;;;;;11.73;3.63;;;;;;;;;;5035421;28;20430;-81
2023/05/18 08:38:15;;;;;;;11.90;2.90;;;;;;;;;;5019764;28;20498;-80
2023/05/18 08:41:16;;;;;;;12.07;2.53;;;;;;;;;;5036203;28;20115;-82
2023/05/18 08:43:45;;;;;;;37.30;3.17;;;;;;;;;;5015397;28;20125;-80
2023/05/18 08:46:21;;;;;;;12.75;3.30;;;;;;;;;;5036282;28;20017;-81
2023/05/18 08:48:46;;;;;;;10.73;2.35;;;;;;;;;;5037507;28;20037;-80
2023/05/18 08:51:13;;;;;;;8.38;3.08;;;;;;;;;;5036745;28;20087;-79
2023/05/18 08:53:39;;;;;;;10.20;3.15;;;;;;;;;;5023616;28;20433;-80
2023/05/18 08:56:05;;;;;;;10.25;3.50;;;;;;;;;;5060817;28;20108;-79
2023/05/18 08:58:35;;;;;;;16.85;3.92;;;;;;;;;;5059090;28;20031;-81
2023/05/18 09:01:01;;;;;;;17.08;4.30;;;;;;;;;;5023329;28;20056;-80
2023/05/18 09:03:26;;;;;;;11.43;3.65;;;;;;;;;;5038979;28;20028;-80
2023/05/18 09:05:55;;;;;;;11.40;3.17;;;;;;;;;;5037760;28;20450;-80
2023/05/18 09:08:21;;;;;;;10.20;3.05;;;;;;;;;;5003841;28;20555;-80
2023/05/18 09:10:47;;;;;;;12.02;4.10;;;;;;;;;;5035362;28;20060;-80
2023/05/18 09:13:13;;;;;;;11.82;2.65;;;;;;;;;;5036118;28;20036;-81
2023/05/18 09:15:39;;;;;;;10.50;2.90;;;;;;;;;;5053592;28;20040;-80
2023/05/18 09:18:05;;;;;;;14.15;3.00;;;;;;;;;;5053364;28;20024;-80
2023/05/18 09:20:31;;;;;;;5.70;2.05;;;;;;;;;;5035549;28;20057;-80
2023/05/18 09:22:57;;;;;;;7.53;2.28;;;;;;;;;;5035588;28;20025;-80
2023/05/18 09:25:22;;;;;;;5.53;2.97;;;;;;;;;;5019142;28;20032;-81
2023/05/18 09:27:50;;;;;;;6.35;2.78;;;;;;;;;;5035056;28;20040;-81
2023/05/18 09:30:16;;;;;;;5.30;2.13;;;;;;;;;;5018515;28;20033;-81
2023/05/18 09:32:45;;;;;;;7.22;2.13;;;;;;;;;;5034440;28;20033;-81
2023/05/18 09:35:11;;;;;;;13.20;2.53;;;;;;;;;;5034081;28;20021;-81
2023/05/18 09:37:40;;;;;;;7.10;2.10;;;;;;;;;;5018248;28;20037;-82
2023/05/18 09:40:09;;;;;;;7.55;2.22;;;;;;;;;;5034738;28;20033;-82
2023/05/18 09:42:38;;;;;;;5.50;2.25;;;;;;;;;;5018586;28;20029;-82
2023/05/18 09:45:18;;;;;;;3.78;2.45;;;;;;;;;;5034980;28;20363;-83
2023/05/18 09:47:44;;;;;;;5.00;1.90;;;;;;;;;;5020552;28;20428;-82
2023/05/18 09:50:10;;;;;;;7.43;1.60;;;;;;;;;;5038936;28;20406;-81
2023/05/18 09:52:43;;;;;;;5.80;2.20;;;;;;;;;;5022684;28;20025;-81
2023/05/18 09:55:10;;;;;;;10.40;1.85;;;;;;;;;;5038631;28;20449;-82
2023/05/18 09:57:46;;;;;;;3.92;1.52;;;;;;;;;;5056896;28;20454;-81
2023/05/18 10:00:14;;;;;;;7.03;1.90;;;;;;;;;;5021646;28;20117;-81
2023/05/18 10:02:47;;;;;;;9.80;1.67;;;;;;;;;;5055894;28;20032;-81
2023/05/18 10:05:26;;;;;;;6.25;2.30;;;;;;;;;;5056977;28;20021;-82
2023/05/18 10:07:53;;;;;;;5.88;2.03;;;;;;;;;;5039493;28;20056;-81
2023/05/18 10:10:24;;;;;;;9.65;2.55;;;;;;;;;;5038676;28;20067;-82
2023/05/18 10:12:50;;;;;;;6.45;1.83;;;;;;;;;;5021044;28;20056;-82
2023/05/18 10:15:19;;;;;;;7.47;2.00;;;;;;;;;;5021427;28;20047;-82
2023/05/18 10:17:45;;;;;;;5.78;2.10;;;;;;;;;;5056232;28;20017;-82
2023/05/18 10:20:14;;;;;;;8.27;2.00;;;;;;;;;;5038205;28;20028;-83
2023/05/18 10:22:40;;;;;;;8.60;2.03;;;;;;;;;;5055963;28;20078;-81
2023/05/18 10:25:09;;;;;;;6.97;2.50;;;;;;;;;;5056370;28;20039;-80
2023/05/18 10:27:35;;;;;;;5.13;2.05;;;;;;;;;;5037736;28;20017;-81
2023/05/18 10:30:04;;;;;;;9.63;2.13;;;;;;;;;;5055044;28;20098;-80
2023/05/18 10:32:30;;;;;;;4.30;1.98;;;;;;;;;;5038021;28;20060;-81
2023/05/18 10:34:55;;;;;;;4.90;1.98;;;;;;;;;;5037484;28;20120;-81
2023/05/18 10:37:22;;;;;;;4.63;1.63;;;;;;;;;;5021018;28;20085;-81
2023/05/18 10:39:50;;;;;;;4.82;1.60;;;;;;;;;;5038417;28;20029;-79
2023/05/18 10:42:16;;;;;;;5.28;1.77;;;;;;;;;;5037489;28;20033;-81
2023/05/18 10:44:42;;;;;;;3.33;1.67;;;;;;;;;;5038760;28;20028;-81
2023/05/18 10:47:10;;;;;;;4.35;1.70;;;;;;;;;;5037408;28;20028;-81
2023/05/18 10:49:36;;;;;;;3.45;1.50;;;;;;;;;;5037968;28;20072;-81
2023/05/18 10:52:02;;;;;;;3.30;1.40;;;;;;;;;;5038106;28;20028;-80
2023/05/18 10:54:29;;;;;;;2.55;1.48;;;;;;;;;;5037059;28;20045;-80
2023/05/18 10:56:54;;;;;;;4.68;2.13;;;;;;;;;;5020979;28;20060;-82
2023/05/18 10:59:23;;;;;;;4.10;1.70;;;;;;;;;;5020198;28;20476;-81
2023/05/18 11:01:50;;;;;;;3.72;1.60;;;;;;;;;;5055150;28;20117;-81
2023/05/18 11:04:25;;;;;;;5.72;1.70;;;;;;;;;;5037251;28;20432;-82
2023/05/18 11:07:01;;;;;;;3.33;1.60;;;;;;;;;;5037071;28;20028;-82
2023/05/18 11:09:28;;;;;;;6.40;2.10;;;;;;;;;;5021538;28;20127;-83
2023/05/18 11:11:56;;;;;;;5.93;1.70;;;;;;;;;;5020348;28;20025;-81
2023/05/18 11:14:31;;;;;;;5.07;1.83;;;;;;;;;;5037041;28;20032;-81
2023/05/18 11:17:32;;;;;;;4.57;1.65;;;;;;;;;;5054835;28;20036;-81
2023/05/18 11:20:11;;;;;;;2.80;1.33;;;;;;;;;;4977160;28;20030;-81
2023/05/18 11:22:50;;;;;;;4.38;1.50;;;;;;;;;;4993383;28;20048;-81
2023/05/18 11:25:24;;;;;;;6.10;1.90;;;;;;;;;;4977309;28;20053;-81
2023/05/18 11:28:01;;;;;;;6.38;1.90;;;;;;;;;;4992643;28;20078;-80
2023/05/18 11:30:32;;;;;;;6.05;1.55;;;;;;;;;;4959715;28;20034;-80
2023/05/18 11:33:16;;;;;;;5.30;1.65;;;;;;;;;;4992392;28;20042;-81
2023/05/18 11:35:53;;;;;;;;;;;;;;;;;;4992499;28;20046;-81
2023/05/18 11:38:19;;;;;;;6.20;1.55;;;;;;;;;;4991967;28;19921;-81
2023/05/18 11:40:46;;;;;;;2.75;1.50;;;;;;;;;;4975844;28;20039;-81
2023/05/18 11:43:22;;;;;;;5.68;1.65;;;;;;;;;;4975958;28;20410;-82
2023/05/18 11:45:52;;;;;;;6.57;1.50;;;;;;;;;;4991830;28;20030;-81
2023/05/18 11:48:21;;;;;;;3.45;1.75;;;;;;;;;;4959415;28;20409;-81
2023/05/18 11:50:46;;;;;;;8.43;1.80;;;;;;;;;;4959808;28;20141;-81
2023/05/18 11:53:18;;;;;;;6.27;1.90;;;;;;;;;;4987892;28;20115;-82
2023/05/18 11:55:45;;;;;;;6.13;1.60;;;;;;;;;;5035697;28;20049;-82
2023/05/18 11:58:13;;;;;;;3.40;1.75;;;;;;;;;;5033547;28;20021;-82
2023/05/18 12:00:39;;;;;;;3.58;1.67;;;;;;;;;;5035700;28;20480;-82
2023/05/18 12:03:05;;;;;;;8.48;2.20;;;;;;;;;;5035442;28;20047;-82
2023/05/18 12:05:33;;;;;;;10.35;1.70;;;;;;;;;;5035210;28;20446;-82
2023/05/18 12:07:58;;;;;;;3.97;1.60;;;;;;;;;;5053007;28;20025;-83
2023/05/18 12:10:24;;;;;;;5.00;1.58;;;;;;;;;;5034000;28;20494;-81
2023/05/18 12:12:51;;;;;;;4.45;1.55;;;;;;;;;;5035043;28;20078;-82
2023/05/18 12:15:21;;;;;;;2.60;1.38;;;;;;;;;;5035411;28;20032;-81
2023/05/18 12:17:47;;;;;;;7.80;1.52;;;;;;;;;;5019108;28;20025;-81
2023/05/18 12:20:18;;;;;;;3.55;1.70;;;;;;;;;;5054258;28;20388;-81
2023/05/18 12:22:45;;;;;;;3.40;1.50;;;;;;;;;;5036447;28;20078;-81
2023/05/18 12:25:11;;;;;;;5.88;1.77;;;;;;;;;;5035424;28;20050;-81
2023/05/18 12:27:38;;;;;;;2.80;1.30;;;;;;;;;;5052605;28;20116;-81
2023/05/18 12:30:04;;;;;;;10.60;1.60;;;;;;;;;;5054279;28;20033;-81
2023/05/18 12:32:30;;;;;;;3.95;1.55;;;;;;;;;;5037496;28;20045;-81
2023/05/18 12:34:55;;;;;;;3.83;1.48;;;;;;;;;;5054248;28;20079;-81
2023/05/18 12:37:24;;;;;;;3.17;1.40;;;;;;;;;;5019779;28;20480;-81
2023/05/18 12:39:55;;;;;;;2.70;1.27;;;;;;;;;;5054468;28;20060;-81
2023/05/18 12:42:21;;;;;;;3.92;1.45;;;;;;;;;;5020089;28;20384;-81
2023/05/18 12:44:48;;;;;;;3.10;1.25;;;;;;;;;;5054850;28;20044;-81
2023/05/18 12:47:14;;;;;;;4.72;1.65;;;;;;;;;;5020346;28;20033;-81
2023/05/18 12:49:42;;;;;;;3.55;1.77;;;;;;;;;;5053341;28;20103;-81
2023/05/18 12:52:10;;;;;;;4.97;1.45;;;;;;;;;;5034717;28;20108;-81
2023/05/18 12:54:35;;;;;;;5.45;1.65;;;;;;;;;;5034608;28;20049;-81
2023/05/18 12:57:06;;;;;;;4.25;1.50;;;;;;;;;;5034677;28;20036;-80
2023/05/18 12:59:31;;;;;;;2.35;1.45;;;;;;;;;;5018002;28;20066;-81
2023/05/18 13:01:57;;;;;;;3.13;1.50;;;;;;;;;;5053946;28;20033;-81
2023/05/18 13:04:32;;;;;;;2.72;1.38;;;;;;;;;;5053285;28;20484;-80
2023/05/18 13:06:57;;;;;;;4.00;1.80;;;;;;;;;;5035346;28;20454;-80
2023/05/18 13:09:23;;;;;;;4.10;1.63;;;;;;;;;;5053749;28;20112;-80
2023/05/18 13:11:51;;;;;;;3.00;1.30;;;;;;;;;;5053321;28;20028;-80
2023/05/18 13:14:23;;;;;;;4.15;1.63;;;;;;;;;;5034224;28;20425;-80
2023/05/18 13:16:51;;;;;;;5.50;1.67;;;;;;;;;;5018081;28;20031;-81
2023/05/18 13:19:20;;;;;;;4.15;1.40;;;;;;;;;;5034359;28;20029;-80
2023/05/18 13:21:48;;;;;;;2.40;1.40;;;;;;;;;;5019935;28;20036;-82
2023/05/18 13:24:13;;;;;;;4.05;1.80;;;;;;;;;;5038341;28;20017;-80
2023/05/18 13:26:39;;;;;;;9.65;1.85;;;;;;;;;;5039422;28;20574;-80
2023/05/18 13:29:06;;;;;;;9.50;1.80;;;;;;;;;;5055465;28;20055;-80
2023/05/18 13:31:31;;;;;;;4.85;1.65;;;;;;;;;;5040272;28;20108;-80
2023/05/18 13:33:57;;;;;;;4.07;1.52;;;;;;;;;;5055893;28;20105;-80
2023/05/18 13:36:22;;;;;;;4.78;1.67;;;;;;;;;;5055763;28;20040;-80
2023/05/18 13:38:48;;;;;;;6.32;1.48;;;;;;;;;;5026329;28;20060;-80
2023/05/18 13:41:13;;;;;;;2.53;1.40;;;;;;;;;;5046531;28;20029;-80
2023/05/18 13:43:40;;;;;;;5.13;1.83;;;;;;;;;;5038772;28;20032;-80
2023/05/18 13:46:06;;;;;;;3.58;1.70;;;;;;;;;;5056583;28;20479;-80
2023/05/18 13:48:31;;;;;;;7.15;2.30;;;;;;;;;;5057700;28;20100;-81
2023/05/18 13:50:56;;;;;;;5.72;1.63;;;;;;;;;;5057999;28;20452;-81
2023/05/18 13:53:22;;;;;;;10.43;1.77;;;;;;;;;;5040448;28;20116;-81
2023/05/18 13:55:48;;;;;;;3.88;1.55;;;;;;;;;;5039049;28;20053;-80
2023/05/18 13:58:14;;;;;;;4.00;1.80;;;;;;;;;;5042278;28;20044;-81
2023/05/18 14:00:40;;;;;;;4.15;1.70;;;;;;;;;;5040395;28;20456;-81
2023/05/18 14:03:06;;;;;;;4.28;1.50;;;;;;;;;;5056541;28;20125;-81
2023/05/18 14:05:31;;;;;;;3.35;1.70;;;;;;;;;;5043054;28;20365;-81
2023/05/18 14:07:57;;;;;;;6.95;1.67;;;;;;;;;;5021734;28;20487;-82
2023/05/18 14:10:22;;;;;;;4.03;1.63;;;;;;;;;;5026285;28;20021;-80
2023/05/18 14:12:48;;;;;;;7.00;1.80;;;;;;;;;;5059312;28;20028;-81
2023/05/18 14:15:13;;;;;;;3.22;1.80;;;;;;;;;;5027225;28;20097;-81
2023/05/18 14:17:39;;;;;;;5.60;1.92;;;;;;;;;;5060333;28;20416;-81
2023/05/18 14:20:06;;;;;;;8.90;1.40;;;;;;;;;;5040821;28;20071;-81
2023/05/18 14:22:31;;;;;;;5.40;1.88;;;;;;;;;;5042090;28;20033;-80
2023/05/18 14:24:57;;;;;;;3.72;1.80;;;;;;;;;;5057243;28;20055;-80
2023/05/18 14:27:22;;;;;;;2.70;1.42;;;;;;;;;;5007500;28;20460;-80
2023/05/18 14:29:49;;;;;;;4.65;1.63;;;;;;;;;;5040729;28;20438;-81
2023/05/18 14:32:14;;;;;;;5.30;1.67;;;;;;;;;;5060735;28;20029;-81
2023/05/18 14:34:40;;;;;;;4.25;1.77;;;;;;;;;;5042090;28;20052;-80
2023/05/18 14:37:05;;;;;;;3.75;1.45;;;;;;;;;;5043076;28;20029;-82
2023/05/18 14:39:31;;;;;;;10.68;2.25;;;;;;;;;;5058928;28;20116;-81
2023/05/18 14:41:56;;;;;;;5.68;1.60;;;;;;;;;;5060160;28;20039;-81